sensor_id;sensor_type;location;lat;lon;timestamp;P1;durP1;ratioP1;P2;durP2;ratioP2
37641;SDS011;23486;51.956;5.888;2023-07-22T00:02:08;5.00;;;2.63;;
37641;SDS011;23486;51.956;5.888;2023-07-22T00:04:36;5.72;;;2.65;;
37641;SDS011;23486;51.956;5.888;2023-07-22T00:07:03;6.15;;;3.40;;
37641;SDS011;23486;51.956;5.888;2023-07-22T00:09:33;7.10;;;3.58;;
37641;SDS011;23486;51.956;5.888;2023-07-22T00:11:59;6.78;;;4.20;;
37641;SDS011;23486;51.956;5.888;2023-07-22T00:14:25;8.13;;;4.10;;
37641;SDS011;23486;51.956;5.888;2023-07-22T00:16:51;8.43;;;4.20;;
37641;SDS011;23486;51.956;5.888;2023-07-22T00:19:16;7.03;;;4.13;;
37641;SDS011;23486;51.956;5.888;2023-07-22T00:21:42;8.50;;;4.05;;
37641;SDS011;23486;51.956;5.888;2023-07-22T00:24:07;10.00;;;4.72;;
37641;SDS011;23486;51.956;5.888;2023-07-22T00:26:33;6.82;;;3.85;;
37641;SDS011;23486;51.956;5.888;2023-07-22T00:28:59;7.00;;;3.90;;
37641;SDS011;23486;51.956;5.888;2023-07-22T00:31:24;8.75;;;4.82;;
37641;SDS011;23486;51.956;5.888;2023-07-22T00:33:52;7.22;;;3.72;;
37641;SDS011;23486;51.956;5.888;2023-07-22T00:36:17;8.45;;;4.60;;
37641;SDS011;23486;51.956;5.888;2023-07-22T00:38:43;7.07;;;4.10;;
37641;SDS011;23486;51.956;5.888;2023-07-22T00:41:08;8.30;;;4.85;;
37641;SDS011;23486;51.956;5.888;2023-07-22T00:43:34;8.07;;;4.82;;
37641;SDS011;23486;51.956;5.888;2023-07-22T00:46:00;8.43;;;5.25;;
37641;SDS011;23486;51.956;5.888;2023-07-22T00:48:26;7.97;;;4.75;;
37641;SDS011;23486;51.956;5.888;2023-07-22T00:50:52;7.88;;;4.80;;
37641;SDS011;23486;51.956;5.888;2023-07-22T00:53:18;8.30;;;4.82;;
37641;SDS011;23486;51.956;5.888;2023-07-22T00:55:44;10.35;;;5.53;;
37641;SDS011;23486;51.956;5.888;2023-07-22T00:58:10;12.98;;;6.78;;
37641;SDS011;23486;51.956;5.888;2023-07-22T01:00:36;10.23;;;5.78;;
37641;SDS011;23486;51.956;5.888;2023-07-22T01:03:02;7.63;;;4.55;;
37641;SDS011;23486;51.956;5.888;2023-07-22T01:05:28;10.60;;;5.95;;
37641;SDS011;23486;51.956;5.888;2023-07-22T01:07:56;9.52;;;4.97;;
37641;SDS011;23486;51.956;5.888;2023-07-22T01:10:22;10.20;;;5.35;;
37641;SDS011;23486;51.956;5.888;2023-07-22T01:12:47;10.93;;;5.90;;
37641;SDS011;23486;51.956;5.888;2023-07-22T01:15:13;12.02;;;6.88;;
37641;SDS011;23486;51.956;5.888;2023-07-22T01:17:39;11.60;;;6.82;;
37641;SDS011;23486;51.956;5.888;2023-07-22T01:20:05;9.95;;;5.88;;
37641;SDS011;23486;51.956;5.888;2023-07-22T01:22:32;11.43;;;6.18;;
37641;SDS011;23486;51.956;5.888;2023-07-22T01:24:58;10.52;;;6.35;;
37641;SDS011;23486;51.956;5.888;2023-07-22T01:27:25;9.23;;;5.70;;
37641;SDS011;23486;51.956;5.888;2023-07-22T01:29:51;9.90;;;5.95;;
37641;SDS011;23486;51.956;5.888;2023-07-22T01:32:17;11.25;;;6.45;;
37641;SDS011;23486;51.956;5.888;2023-07-22T01:34:43;10.63;;;6.50;;
37641;SDS011;23486;51.956;5.888;2023-07-22T01:37:08;13.20;;;7.40;;
37641;SDS011;23486;51.956;5.888;2023-07-22T01:39:34;9.98;;;6.35;;
37641;SDS011;23486;51.956;5.888;2023-07-22T01:42:00;12.48;;;7.43;;
37641;SDS011;23486;51.956;5.888;2023-07-22T01:44:26;11.45;;;6.82;;
37641;SDS011;23486;51.956;5.888;2023-07-22T01:46:51;12.02;;;7.03;;
37641;SDS011;23486;51.956;5.888;2023-07-22T01:49:17;14.18;;;7.63;;
37641;SDS011;23486;51.956;5.888;2023-07-22T01:51:43;13.68;;;7.60;;
37641;SDS011;23486;51.956;5.888;2023-07-22T01:54:09;13.35;;;7.50;;
37641;SDS011;23486;51.956;5.888;2023-07-22T01:56:35;11.25;;;6.82;;
37641;SDS011;23486;51.956;5.888;2023-07-22T01:59:01;14.38;;;8.73;;
37641;SDS011;23486;51.956;5.888;2023-07-22T02:01:27;13.48;;;7.28;;
37641;SDS011;23486;51.956;5.888;2023-07-22T02:03:53;10.77;;;6.85;;
37641;SDS011;23486;51.956;5.888;2023-07-22T02:06:20;16.42;;;8.00;;
37641;SDS011;23486;51.956;5.888;2023-07-22T02:08:45;13.43;;;8.10;;
37641;SDS011;23486;51.956;5.888;2023-07-22T02:11:11;12.80;;;7.63;;
37641;SDS011;23486;51.956;5.888;2023-07-22T02:13:38;13.52;;;8.07;;
37641;SDS011;23486;51.956;5.888;2023-07-22T02:16:03;13.85;;;8.77;;
37641;SDS011;23486;51.956;5.888;2023-07-22T02:18:29;11.88;;;7.95;;
37641;SDS011;23486;51.956;5.888;2023-07-22T02:20:55;13.85;;;7.85;;
37641;SDS011;23486;51.956;5.888;2023-07-22T02:23:22;13.40;;;7.85;;
37641;SDS011;23486;51.956;5.888;2023-07-22T02:25:49;14.98;;;9.57;;
37641;SDS011;23486;51.956;5.888;2023-07-22T02:28:18;14.75;;;9.02;;
37641;SDS011;23486;51.956;5.888;2023-07-22T02:30:49;17.95;;;10.48;;
37641;SDS011;23486;51.956;5.888;2023-07-22T02:33:17;12.88;;;8.15;;
37641;SDS011;23486;51.956;5.888;2023-07-22T02:35:42;15.00;;;9.00;;
37641;SDS011;23486;51.956;5.888;2023-07-22T02:38:08;13.70;;;8.93;;
37641;SDS011;23486;51.956;5.888;2023-07-22T02:40:35;15.35;;;9.90;;
37641;SDS011;23486;51.956;5.888;2023-07-22T02:43:01;16.85;;;8.82;;
37641;SDS011;23486;51.956;5.888;2023-07-22T02:45:26;17.38;;;9.50;;
37641;SDS011;23486;51.956;5.888;2023-07-22T02:47:52;16.52;;;9.88;;
37641;SDS011;23486;51.956;5.888;2023-07-22T02:50:17;14.25;;;9.18;;
37641;SDS011;23486;51.956;5.888;2023-07-22T02:52:43;16.02;;;9.55;;
37641;SDS011;23486;51.956;5.888;2023-07-22T02:55:13;14.98;;;9.18;;
37641;SDS011;23486;51.956;5.888;2023-07-22T02:57:43;15.27;;;9.68;;
37641;SDS011;23486;51.956;5.888;2023-07-22T03:00:11;16.75;;;9.02;;
37641;SDS011;23486;51.956;5.888;2023-07-22T03:02:38;15.38;;;8.60;;
37641;SDS011;23486;51.956;5.888;2023-07-22T03:05:05;12.57;;;8.60;;
37641;SDS011;23486;51.956;5.888;2023-07-22T03:07:35;15.70;;;9.45;;
37641;SDS011;23486;51.956;5.888;2023-07-22T03:10:01;18.55;;;10.32;;
37641;SDS011;23486;51.956;5.888;2023-07-22T03:12:27;15.13;;;8.68;;
37641;SDS011;23486;51.956;5.888;2023-07-22T03:14:53;17.13;;;10.50;;
37641;SDS011;23486;51.956;5.888;2023-07-22T03:17:19;12.63;;;8.30;;
37641;SDS011;23486;51.956;5.888;2023-07-22T03:19:45;16.73;;;9.38;;
37641;SDS011;23486;51.956;5.888;2023-07-22T03:22:13;15.63;;;9.95;;
37641;SDS011;23486;51.956;5.888;2023-07-22T03:24:39;15.98;;;10.30;;
37641;SDS011;23486;51.956;5.888;2023-07-22T03:27:05;16.60;;;10.15;;
37641;SDS011;23486;51.956;5.888;2023-07-22T03:29:31;18.95;;;10.32;;
37641;SDS011;23486;51.956;5.888;2023-07-22T03:31:57;16.50;;;10.23;;
37641;SDS011;23486;51.956;5.888;2023-07-22T03:34:25;17.83;;;11.05;;
37641;SDS011;23486;51.956;5.888;2023-07-22T03:36:54;14.55;;;9.05;;
37641;SDS011;23486;51.956;5.888;2023-07-22T03:39:20;17.17;;;9.55;;
37641;SDS011;23486;51.956;5.888;2023-07-22T03:41:45;14.82;;;9.27;;
37641;SDS011;23486;51.956;5.888;2023-07-22T03:44:11;18.13;;;10.75;;
37641;SDS011;23486;51.956;5.888;2023-07-22T03:46:37;18.42;;;10.75;;
37641;SDS011;23486;51.956;5.888;2023-07-22T03:49:03;17.30;;;9.30;;
37641;SDS011;23486;51.956;5.888;2023-07-22T03:51:29;18.10;;;10.10;;
37641;SDS011;23486;51.956;5.888;2023-07-22T03:53:55;18.60;;;10.23;;
37641;SDS011;23486;51.956;5.888;2023-07-22T03:56:22;19.42;;;10.18;;
37641;SDS011;23486;51.956;5.888;2023-07-22T03:58:49;16.17;;;9.48;;
37641;SDS011;23486;51.956;5.888;2023-07-22T04:01:18;15.70;;;9.93;;
37641;SDS011;23486;51.956;5.888;2023-07-22T04:03:43;17.20;;;9.52;;
37641;SDS011;23486;51.956;5.888;2023-07-22T04:06:09;18.65;;;10.02;;
37641;SDS011;23486;51.956;5.888;2023-07-22T04:08:35;17.63;;;9.90;;
37641;SDS011;23486;51.956;5.888;2023-07-22T04:11:01;22.77;;;10.50;;
37641;SDS011;23486;51.956;5.888;2023-07-22T04:13:27;16.42;;;9.93;;
37641;SDS011;23486;51.956;5.888;2023-07-22T04:15:53;20.17;;;10.13;;
37641;SDS011;23486;51.956;5.888;2023-07-22T04:18:19;19.30;;;10.60;;
37641;SDS011;23486;51.956;5.888;2023-07-22T04:20:45;21.50;;;11.70;;
37641;SDS011;23486;51.956;5.888;2023-07-22T04:23:11;19.27;;;10.52;;
37641;SDS011;23486;51.956;5.888;2023-07-22T04:28:06;18.90;;;10.05;;
37641;SDS011;23486;51.956;5.888;2023-07-22T04:30:33;22.48;;;11.40;;
37641;SDS011;23486;51.956;5.888;2023-07-22T04:33:02;19.80;;;11.63;;
37641;SDS011;23486;51.956;5.888;2023-07-22T04:35:33;19.08;;;10.32;;
37641;SDS011;23486;51.956;5.888;2023-07-22T04:38:03;18.75;;;10.93;;
37641;SDS011;23486;51.956;5.888;2023-07-22T04:40:29;21.20;;;11.13;;
37641;SDS011;23486;51.956;5.888;2023-07-22T04:42:58;17.80;;;10.55;;
37641;SDS011;23486;51.956;5.888;2023-07-22T04:45:23;16.20;;;10.30;;
37641;SDS011;23486;51.956;5.888;2023-07-22T04:47:52;20.55;;;11.02;;
37641;SDS011;23486;51.956;5.888;2023-07-22T04:50:17;20.67;;;11.80;;
37641;SDS011;23486;51.956;5.888;2023-07-22T04:52:46;20.08;;;11.10;;
37641;SDS011;23486;51.956;5.888;2023-07-22T04:55:13;20.85;;;12.00;;
37641;SDS011;23486;51.956;5.888;2023-07-22T04:57:39;20.00;;;11.45;;
37641;SDS011;23486;51.956;5.888;2023-07-22T05:00:10;16.58;;;9.95;;
37641;SDS011;23486;51.956;5.888;2023-07-22T05:02:41;21.98;;;11.85;;
37641;SDS011;23486;51.956;5.888;2023-07-22T05:05:16;19.95;;;11.40;;
37641;SDS011;23486;51.956;5.888;2023-07-22T05:07:42;22.52;;;13.15;;
37641;SDS011;23486;51.956;5.888;2023-07-22T05:10:08;19.60;;;12.05;;
37641;SDS011;23486;51.956;5.888;2023-07-22T05:12:37;18.17;;;10.93;;
37641;SDS011;23486;51.956;5.888;2023-07-22T05:15:03;17.60;;;10.93;;
37641;SDS011;23486;51.956;5.888;2023-07-22T05:17:30;21.05;;;11.98;;
37641;SDS011;23486;51.956;5.888;2023-07-22T05:19:56;19.67;;;11.30;;
37641;SDS011;23486;51.956;5.888;2023-07-22T05:22:22;21.30;;;13.18;;
37641;SDS011;23486;51.956;5.888;2023-07-22T05:24:48;26.20;;;12.95;;
37641;SDS011;23486;51.956;5.888;2023-07-22T05:27:13;21.35;;;11.48;;
37641;SDS011;23486;51.956;5.888;2023-07-22T05:29:39;19.73;;;12.63;;
37641;SDS011;23486;51.956;5.888;2023-07-22T05:32:05;20.65;;;12.95;;
37641;SDS011;23486;51.956;5.888;2023-07-22T05:34:31;22.25;;;13.05;;
37641;SDS011;23486;51.956;5.888;2023-07-22T05:36:57;21.85;;;12.52;;
37641;SDS011;23486;51.956;5.888;2023-07-22T05:39:22;22.77;;;13.63;;
37641;SDS011;23486;51.956;5.888;2023-07-22T05:41:48;20.92;;;12.95;;
37641;SDS011;23486;51.956;5.888;2023-07-22T05:44:14;20.67;;;12.05;;
37641;SDS011;23486;51.956;5.888;2023-07-22T05:46:39;25.00;;;12.82;;
37641;SDS011;23486;51.956;5.888;2023-07-22T05:49:05;22.25;;;12.65;;
37641;SDS011;23486;51.956;5.888;2023-07-22T05:51:31;18.50;;;11.55;;
37641;SDS011;23486;51.956;5.888;2023-07-22T05:53:56;21.10;;;12.35;;
37641;SDS011;23486;51.956;5.888;2023-07-22T05:56:22;18.02;;;11.65;;
37641;SDS011;23486;51.956;5.888;2023-07-22T05:58:48;21.30;;;12.73;;
37641;SDS011;23486;51.956;5.888;2023-07-22T06:01:14;22.77;;;12.63;;
37641;SDS011;23486;51.956;5.888;2023-07-22T06:03:40;22.00;;;13.93;;
37641;SDS011;23486;51.956;5.888;2023-07-22T06:06:06;22.27;;;14.10;;
37641;SDS011;23486;51.956;5.888;2023-07-22T06:08:31;24.92;;;14.85;;
37641;SDS011;23486;51.956;5.888;2023-07-22T06:10:57;27.15;;;14.52;;
37641;SDS011;23486;51.956;5.888;2023-07-22T06:13:23;24.27;;;15.20;;
37641;SDS011;23486;51.956;5.888;2023-07-22T06:15:48;27.17;;;13.75;;
37641;SDS011;23486;51.956;5.888;2023-07-22T06:18:14;23.88;;;13.40;;
37641;SDS011;23486;51.956;5.888;2023-07-22T06:20:39;22.92;;;13.35;;
37641;SDS011;23486;51.956;5.888;2023-07-22T06:23:05;21.75;;;12.77;;
37641;SDS011;23486;51.956;5.888;2023-07-22T06:25:31;23.42;;;14.57;;
37641;SDS011;23486;51.956;5.888;2023-07-22T06:27:56;23.90;;;14.98;;
37641;SDS011;23486;51.956;5.888;2023-07-22T06:30:22;24.08;;;14.93;;
37641;SDS011;23486;51.956;5.888;2023-07-22T06:32:48;25.02;;;15.60;;
37641;SDS011;23486;51.956;5.888;2023-07-22T06:35:13;21.40;;;12.50;;
37641;SDS011;23486;51.956;5.888;2023-07-22T06:37:39;23.42;;;12.68;;
37641;SDS011;23486;51.956;5.888;2023-07-22T06:40:05;17.08;;;10.65;;
37641;SDS011;23486;51.956;5.888;2023-07-22T06:42:31;24.58;;;13.77;;
37641;SDS011;23486;51.956;5.888;2023-07-22T06:44:57;22.08;;;12.85;;
37641;SDS011;23486;51.956;5.888;2023-07-22T06:47:23;19.95;;;12.10;;
37641;SDS011;23486;51.956;5.888;2023-07-22T06:49:48;21.20;;;13.63;;
37641;SDS011;23486;51.956;5.888;2023-07-22T06:52:15;21.65;;;13.23;;
37641;SDS011;23486;51.956;5.888;2023-07-22T06:54:41;19.98;;;11.43;;
37641;SDS011;23486;51.956;5.888;2023-07-22T06:57:07;16.02;;;9.48;;
37641;SDS011;23486;51.956;5.888;2023-07-22T06:59:33;18.10;;;11.10;;
37641;SDS011;23486;51.956;5.888;2023-07-22T07:01:58;19.38;;;11.48;;
37641;SDS011;23486;51.956;5.888;2023-07-22T07:04:24;17.27;;;11.50;;
37641;SDS011;23486;51.956;5.888;2023-07-22T07:06:50;15.98;;;9.85;;
37641;SDS011;23486;51.956;5.888;2023-07-22T07:09:16;17.80;;;10.90;;
37641;SDS011;23486;51.956;5.888;2023-07-22T07:11:41;15.30;;;9.80;;
37641;SDS011;23486;51.956;5.888;2023-07-22T07:14:07;17.23;;;9.88;;
37641;SDS011;23486;51.956;5.888;2023-07-22T07:16:33;20.55;;;11.07;;
37641;SDS011;23486;51.956;5.888;2023-07-22T07:18:59;19.05;;;9.48;;
37641;SDS011;23486;51.956;5.888;2023-07-22T07:21:26;12.52;;;8.80;;
37641;SDS011;23486;51.956;5.888;2023-07-22T07:23:52;15.55;;;9.43;;
37641;SDS011;23486;51.956;5.888;2023-07-22T07:26:19;16.77;;;10.07;;
37641;SDS011;23486;51.956;5.888;2023-07-22T07:28:46;18.88;;;10.65;;
37641;SDS011;23486;51.956;5.888;2023-07-22T07:31:12;17.33;;;10.05;;
37641;SDS011;23486;51.956;5.888;2023-07-22T07:33:38;15.48;;;9.77;;
37641;SDS011;23486;51.956;5.888;2023-07-22T07:36:04;14.88;;;9.18;;
37641;SDS011;23486;51.956;5.888;2023-07-22T07:38:29;16.60;;;9.15;;
37641;SDS011;23486;51.956;5.888;2023-07-22T07:40:56;13.82;;;8.63;;
37641;SDS011;23486;51.956;5.888;2023-07-22T07:43:23;14.05;;;8.90;;
37641;SDS011;23486;51.956;5.888;2023-07-22T07:45:48;15.40;;;9.23;;
37641;SDS011;23486;51.956;5.888;2023-07-22T07:48:14;12.85;;;8.65;;
37641;SDS011;23486;51.956;5.888;2023-07-22T07:50:41;12.57;;;7.88;;
37641;SDS011;23486;51.956;5.888;2023-07-22T07:53:07;10.90;;;6.88;;
37641;SDS011;23486;51.956;5.888;2023-07-22T07:55:33;15.07;;;8.73;;
37641;SDS011;23486;51.956;5.888;2023-07-22T07:57:59;10.43;;;6.32;;
37641;SDS011;23486;51.956;5.888;2023-07-22T08:00:24;12.88;;;7.75;;
37641;SDS011;23486;51.956;5.888;2023-07-22T08:02:50;14.23;;;7.88;;
37641;SDS011;23486;51.956;5.888;2023-07-22T08:05:16;12.05;;;7.03;;
37641;SDS011;23486;51.956;5.888;2023-07-22T08:07:41;11.93;;;6.72;;
37641;SDS011;23486;51.956;5.888;2023-07-22T08:10:07;12.63;;;7.38;;
37641;SDS011;23486;51.956;5.888;2023-07-22T08:12:34;14.07;;;8.07;;
37641;SDS011;23486;51.956;5.888;2023-07-22T08:15:02;11.05;;;7.32;;
37641;SDS011;23486;51.956;5.888;2023-07-22T08:17:28;16.02;;;8.07;;
37641;SDS011;23486;51.956;5.888;2023-07-22T08:19:53;12.98;;;7.50;;
37641;SDS011;23486;51.956;5.888;2023-07-22T08:22:19;11.05;;;7.13;;
37641;SDS011;23486;51.956;5.888;2023-07-22T08:24:44;11.65;;;7.28;;
37641;SDS011;23486;51.956;5.888;2023-07-22T08:27:10;10.13;;;6.35;;
37641;SDS011;23486;51.956;5.888;2023-07-22T08:29:36;13.57;;;6.45;;
37641;SDS011;23486;51.956;5.888;2023-07-22T08:32:02;10.23;;;6.00;;
37641;SDS011;23486;51.956;5.888;2023-07-22T08:34:27;11.82;;;6.18;;
37641;SDS011;23486;51.956;5.888;2023-07-22T08:36:53;12.13;;;7.10;;
37641;SDS011;23486;51.956;5.888;2023-07-22T08:39:19;10.35;;;6.55;;
37641;SDS011;23486;51.956;5.888;2023-07-22T08:41:48;9.68;;;6.50;;
37641;SDS011;23486;51.956;5.888;2023-07-22T08:44:20;14.73;;;7.43;;
37641;SDS011;23486;51.956;5.888;2023-07-22T08:46:46;11.52;;;6.30;;
37641;SDS011;23486;51.956;5.888;2023-07-22T08:49:15;11.40;;;7.20;;
37641;SDS011;23486;51.956;5.888;2023-07-22T08:51:40;11.75;;;7.35;;
37641;SDS011;23486;51.956;5.888;2023-07-22T08:54:06;12.75;;;7.43;;
37641;SDS011;23486;51.956;5.888;2023-07-22T08:56:33;9.10;;;5.97;;
37641;SDS011;23486;51.956;5.888;2023-07-22T08:59:00;9.88;;;6.35;;
37641;SDS011;23486;51.956;5.888;2023-07-22T09:01:26;12.18;;;6.45;;
37641;SDS011;23486;51.956;5.888;2023-07-22T09:03:52;8.23;;;5.32;;
37641;SDS011;23486;51.956;5.888;2023-07-22T09:06:19;11.50;;;5.82;;
37641;SDS011;23486;51.956;5.888;2023-07-22T09:08:45;10.43;;;5.40;;
37641;SDS011;23486;51.956;5.888;2023-07-22T09:11:11;8.23;;;4.80;;
37641;SDS011;23486;51.956;5.888;2023-07-22T09:13:37;8.75;;;5.00;;
37641;SDS011;23486;51.956;5.888;2023-07-22T09:16:05;8.27;;;4.97;;
37641;SDS011;23486;51.956;5.888;2023-07-22T09:18:34;8.43;;;3.88;;
37641;SDS011;23486;51.956;5.888;2023-07-22T09:21:00;7.68;;;4.35;;
37641;SDS011;23486;51.956;5.888;2023-07-22T09:23:35;7.75;;;4.28;;
37641;SDS011;23486;51.956;5.888;2023-07-22T09:26:08;7.10;;;4.10;;
37641;SDS011;23486;51.956;5.888;2023-07-22T09:28:48;8.43;;;3.85;;
37641;SDS011;23486;51.956;5.888;2023-07-22T09:31:22;7.90;;;2.83;;
37641;SDS011;23486;51.956;5.888;2023-07-22T09:33:51;6.45;;;3.35;;
37641;SDS011;23486;51.956;5.888;2023-07-22T09:36:20;5.82;;;2.78;;
37641;SDS011;23486;51.956;5.888;2023-07-22T09:38:58;7.05;;;3.20;;
37641;SDS011;23486;51.956;5.888;2023-07-22T09:41:28;5.35;;;2.55;;
37641;SDS011;23486;51.956;5.888;2023-07-22T09:43:55;6.28;;;2.72;;
37641;SDS011;23486;51.956;5.888;2023-07-22T09:46:21;6.47;;;2.90;;
37641;SDS011;23486;51.956;5.888;2023-07-22T09:48:55;6.43;;;3.10;;
37641;SDS011;23486;51.956;5.888;2023-07-22T09:51:21;5.53;;;2.38;;
37641;SDS011;23486;51.956;5.888;2023-07-22T09:53:47;4.57;;;2.33;;
37641;SDS011;23486;51.956;5.888;2023-07-22T09:56:24;7.70;;;3.10;;
37641;SDS011;23486;51.956;5.888;2023-07-22T09:58:50;5.40;;;2.83;;
37641;SDS011;23486;51.956;5.888;2023-07-22T10:01:17;4.80;;;1.83;;
37641;SDS011;23486;51.956;5.888;2023-07-22T10:03:45;5.43;;;3.03;;
37641;SDS011;23486;51.956;5.888;2023-07-22T10:06:13;4.55;;;2.22;;
37641;SDS011;23486;51.956;5.888;2023-07-22T10:08:40;5.22;;;2.33;;
37641;SDS011;23486;51.956;5.888;2023-07-22T10:11:10;5.18;;;2.45;;
37641;SDS011;23486;51.956;5.888;2023-07-22T10:13:38;5.05;;;1.98;;
37641;SDS011;23486;51.956;5.888;2023-07-22T10:16:04;5.53;;;1.90;;
37641;SDS011;23486;51.956;5.888;2023-07-22T10:18:30;4.55;;;2.08;;
37641;SDS011;23486;51.956;5.888;2023-07-22T10:20:57;8.50;;;2.50;;
37641;SDS011;23486;51.956;5.888;2023-07-22T10:23:24;5.25;;;2.05;;
37641;SDS011;23486;51.956;5.888;2023-07-22T10:25:51;4.93;;;2.40;;
37641;SDS011;23486;51.956;5.888;2023-07-22T10:28:19;5.25;;;1.90;;
37641;SDS011;23486;51.956;5.888;2023-07-22T10:30:46;4.05;;;2.15;;
37641;SDS011;23486;51.956;5.888;2023-07-22T10:33:11;5.43;;;1.77;;
37641;SDS011;23486;51.956;5.888;2023-07-22T10:35:41;4.95;;;1.88;;
37641;SDS011;23486;51.956;5.888;2023-07-22T10:38:10;5.97;;;2.30;;
37641;SDS011;23486;51.956;5.888;2023-07-22T10:40:50;4.00;;;1.52;;
37641;SDS011;23486;51.956;5.888;2023-07-22T10:43:18;4.82;;;1.85;;
37641;SDS011;23486;51.956;5.888;2023-07-22T10:45:52;4.32;;;1.40;;
37641;SDS011;23486;51.956;5.888;2023-07-22T10:48:20;5.78;;;2.20;;
37641;SDS011;23486;51.956;5.888;2023-07-22T10:50:50;3.45;;;1.63;;
37641;SDS011;23486;51.956;5.888;2023-07-22T11:01:24;3.50;;;1.33;;
37641;SDS011;23486;51.956;5.888;2023-07-22T11:04:02;4.78;;;1.48;;
37641;SDS011;23486;51.956;5.888;2023-07-22T11:06:31;4.03;;;1.40;;
37641;SDS011;23486;51.956;5.888;2023-07-22T11:08:58;4.43;;;1.35;;
37641;SDS011;23486;51.956;5.888;2023-07-22T11:11:37;4.53;;;1.60;;
37641;SDS011;23486;51.956;5.888;2023-07-22T11:14:12;3.05;;;1.58;;
37641;SDS011;23486;51.956;5.888;2023-07-22T11:16:38;4.72;;;1.67;;
37641;SDS011;23486;51.956;5.888;2023-07-22T11:19:04;4.80;;;1.80;;
37641;SDS011;23486;51.956;5.888;2023-07-22T11:21:30;5.82;;;1.83;;
37641;SDS011;23486;51.956;5.888;2023-07-22T11:23:55;5.07;;;1.35;;
37641;SDS011;23486;51.956;5.888;2023-07-22T11:26:21;3.63;;;1.20;;
37641;SDS011;23486;51.956;5.888;2023-07-22T11:28:46;7.43;;;1.50;;
37641;SDS011;23486;51.956;5.888;2023-07-22T11:31:13;5.32;;;1.67;;
37641;SDS011;23486;51.956;5.888;2023-07-22T11:33:41;4.28;;;1.80;;
37641;SDS011;23486;51.956;5.888;2023-07-22T11:36:09;3.42;;;1.20;;
37641;SDS011;23486;51.956;5.888;2023-07-22T11:38:35;4.72;;;1.50;;
37641;SDS011;23486;51.956;5.888;2023-07-22T11:41:01;4.30;;;1.30;;
37641;SDS011;23486;51.956;5.888;2023-07-22T11:43:27;4.35;;;1.02;;
37641;SDS011;23486;51.956;5.888;2023-07-22T11:45:53;3.90;;;0.98;;
37641;SDS011;23486;51.956;5.888;2023-07-22T11:48:18;3.88;;;1.10;;
37641;SDS011;23486;51.956;5.888;2023-07-22T11:50:44;4.75;;;1.02;;
37641;SDS011;23486;51.956;5.888;2023-07-22T11:53:10;3.55;;;0.77;;
37641;SDS011;23486;51.956;5.888;2023-07-22T11:55:36;3.55;;;0.70;;
37641;SDS011;23486;51.956;5.888;2023-07-22T11:58:03;2.80;;;0.85;;
37641;SDS011;23486;51.956;5.888;2023-07-22T12:00:28;3.38;;;0.77;;
37641;SDS011;23486;51.956;5.888;2023-07-22T12:02:54;3.92;;;0.90;;
37641;SDS011;23486;51.956;5.888;2023-07-22T12:05:22;3.33;;;0.75;;
37641;SDS011;23486;51.956;5.888;2023-07-22T12:07:48;3.78;;;0.93;;
37641;SDS011;23486;51.956;5.888;2023-07-22T12:10:15;3.03;;;0.80;;
37641;SDS011;23486;51.956;5.888;2023-07-22T12:12:44;4.82;;;0.95;;
37641;SDS011;23486;51.956;5.888;2023-07-22T12:15:21;3.20;;;1.00;;
37641;SDS011;23486;51.956;5.888;2023-07-22T12:17:52;3.03;;;0.68;;
37641;SDS011;23486;51.956;5.888;2023-07-22T12:20:28;2.67;;;0.70;;
37641;SDS011;23486;51.956;5.888;2023-07-22T12:22:58;4.32;;;0.73;;
37641;SDS011;23486;51.956;5.888;2023-07-22T12:25:24;3.65;;;0.57;;
37641;SDS011;23486;51.956;5.888;2023-07-22T12:27:50;2.30;;;0.60;;
37641;SDS011;23486;51.956;5.888;2023-07-22T12:30:16;5.97;;;0.70;;
37641;SDS011;23486;51.956;5.888;2023-07-22T12:32:42;2.20;;;0.60;;
37641;SDS011;23486;51.956;5.888;2023-07-22T12:35:09;1.83;;;0.40;;
37641;SDS011;23486;51.956;5.888;2023-07-22T12:37:35;2.65;;;0.60;;
37641;SDS011;23486;51.956;5.888;2023-07-22T12:40:01;2.30;;;0.68;;
37641;SDS011;23486;51.956;5.888;2023-07-22T12:42:29;2.78;;;0.70;;
37641;SDS011;23486;51.956;5.888;2023-07-22T12:44:55;2.15;;;0.50;;
37641;SDS011;23486;51.956;5.888;2023-07-22T12:47:21;2.22;;;0.60;;
37641;SDS011;23486;51.956;5.888;2023-07-22T12:49:46;3.58;;;0.75;;
37641;SDS011;23486;51.956;5.888;2023-07-22T12:52:12;3.90;;;1.30;;
37641;SDS011;23486;51.956;5.888;2023-07-22T12:54:38;4.55;;;1.00;;
37641;SDS011;23486;51.956;5.888;2023-07-22T12:57:04;3.15;;;0.70;;
37641;SDS011;23486;51.956;5.888;2023-07-22T12:59:30;2.58;;;0.82;;
37641;SDS011;23486;51.956;5.888;2023-07-22T13:01:56;4.07;;;0.93;;
37641;SDS011;23486;51.956;5.888;2023-07-22T13:04:23;3.10;;;1.55;;
37641;SDS011;23486;51.956;5.888;2023-07-22T13:06:49;5.43;;;1.10;;
37641;SDS011;23486;51.956;5.888;2023-07-22T13:09:16;5.47;;;1.20;;
37641;SDS011;23486;51.956;5.888;2023-07-22T13:11:42;4.25;;;1.35;;
37641;SDS011;23486;51.956;5.888;2023-07-22T13:14:08;4.15;;;1.13;;
37641;SDS011;23486;51.956;5.888;2023-07-22T13:16:33;5.22;;;1.15;;
37641;SDS011;23486;51.956;5.888;2023-07-22T13:18:59;2.65;;;1.05;;
37641;SDS011;23486;51.956;5.888;2023-07-22T13:21:26;5.88;;;1.80;;
37641;SDS011;23486;51.956;5.888;2023-07-22T13:23:52;4.25;;;1.50;;
37641;SDS011;23486;51.956;5.888;2023-07-22T13:26:17;3.15;;;1.13;;
37641;SDS011;23486;51.956;5.888;2023-07-22T13:28:43;2.90;;;1.00;;
37641;SDS011;23486;51.956;5.888;2023-07-22T13:31:08;2.53;;;0.90;;
37641;SDS011;23486;51.956;5.888;2023-07-22T13:33:34;2.95;;;1.17;;
37641;SDS011;23486;51.956;5.888;2023-07-22T13:35:59;2.83;;;0.82;;
37641;SDS011;23486;51.956;5.888;2023-07-22T13:38:25;3.22;;;1.13;;
37641;SDS011;23486;51.956;5.888;2023-07-22T13:40:51;2.67;;;0.80;;
37641;SDS011;23486;51.956;5.888;2023-07-22T13:43:16;3.45;;;1.15;;
37641;SDS011;23486;51.956;5.888;2023-07-22T13:45:42;3.00;;;1.00;;
37641;SDS011;23486;51.956;5.888;2023-07-22T13:48:07;4.38;;;1.20;;
37641;SDS011;23486;51.956;5.888;2023-07-22T13:50:33;4.10;;;0.90;;
37641;SDS011;23486;51.956;5.888;2023-07-22T13:52:59;3.17;;;0.80;;
37641;SDS011;23486;51.956;5.888;2023-07-22T13:55:24;3.58;;;0.88;;
37641;SDS011;23486;51.956;5.888;2023-07-22T13:57:50;4.70;;;1.42;;
37641;SDS011;23486;51.956;5.888;2023-07-22T14:00:15;5.97;;;1.40;;
37641;SDS011;23486;51.956;5.888;2023-07-22T14:02:41;3.90;;;1.05;;
37641;SDS011;23486;51.956;5.888;2023-07-22T14:05:07;3.40;;;0.90;;
37641;SDS011;23486;51.956;5.888;2023-07-22T14:07:34;3.13;;;1.13;;
37641;SDS011;23486;51.956;5.888;2023-07-22T14:10:00;4.05;;;1.02;;
37641;SDS011;23486;51.956;5.888;2023-07-22T14:12:26;5.18;;;1.20;;
37641;SDS011;23486;51.956;5.888;2023-07-22T14:14:51;2.10;;;0.80;;
37641;SDS011;23486;51.956;5.888;2023-07-22T14:17:17;2.90;;;1.00;;
37641;SDS011;23486;51.956;5.888;2023-07-22T14:19:43;3.28;;;1.20;;
37641;SDS011;23486;51.956;5.888;2023-07-22T14:22:08;3.75;;;0.98;;
37641;SDS011;23486;51.956;5.888;2023-07-22T14:24:34;3.10;;;0.73;;
37641;SDS011;23486;51.956;5.888;2023-07-22T14:26:59;2.50;;;0.90;;
37641;SDS011;23486;51.956;5.888;2023-07-22T14:29:25;2.08;;;0.93;;
37641;SDS011;23486;51.956;5.888;2023-07-22T14:31:51;5.28;;;1.70;;
37641;SDS011;23486;51.956;5.888;2023-07-22T14:34:17;4.00;;;1.27;;
37641;SDS011;23486;51.956;5.888;2023-07-22T14:36:43;5.07;;;1.20;;
37641;SDS011;23486;51.956;5.888;2023-07-22T14:39:08;4.20;;;1.60;;
37641;SDS011;23486;51.956;5.888;2023-07-22T14:41:34;4.57;;;1.30;;
37641;SDS011;23486;51.956;5.888;2023-07-22T14:44:00;3.75;;;1.23;;
37641;SDS011;23486;51.956;5.888;2023-07-22T14:46:26;3.95;;;1.58;;